Time;durP1;ratioP1;P1;durP2;ratioP2;P2;SDS_P1;SDS_P2;PMS_P1;PMS_P2;Temp;Humidity;BMP_temperature;BMP_pressure;BME280_temperature;BME280_humidity;BME280_pressure;Samples;Min_cycle;Max_cycle;Signal;HPM_P1;HPM_P2
2021/12/22 00:01:39;;;;;;;7.07;1.17;;;-2.00;99.90;;;;;;5041316;28;20095;-75
2021/12/22 00:04:04;;;;;;;4.18;2.85;;;-2.10;99.90;;;;;;5058228;28;20400;-75
2021/12/22 00:06:33;;;;;;;1.13;1.02;;;-2.10;99.90;;;;;;5051678;28;20125;-75
2021/12/22 00:08:59;;;;;;;1.05;1.05;;;-2.10;99.90;;;;;;5057496;28;20041;-76
2021/12/22 00:11:26;;;;;;;0.60;0.60;;;-2.20;99.90;;;;;;5047356;28;20056;-75
2021/12/22 00:13:53;;;;;;;1.45;1.35;;;-2.20;99.90;;;;;;5081899;28;20051;-75
2021/12/22 00:16:18;;;;;;;1.15;1.15;;;-2.30;99.90;;;;;;5064453;28;20408;-75
2021/12/22 00:18:44;;;;;;;53.13;31.30;;;-2.30;99.90;;;;;;5068983;28;20040;-75
2021/12/22 00:21:10;;;;;;;0.43;0.43;;;-2.30;99.90;;;;;;5046544;28;20051;-75
2021/12/22 00:23:37;;;;;;;1.40;1.30;;;-2.30;99.90;;;;;;5055351;28;20051;-75
2021/12/22 00:26:03;;;;;;;1.23;1.13;;;-2.30;99.90;;;;;;5043565;28;20417;-75
2021/12/22 00:28:29;;;;;;;0.85;0.85;;;-2.30;99.90;;;;;;5046877;28;20052;-75
2021/12/22 00:30:56;;;;;;;1.77;1.65;;;-2.30;99.90;;;;;;5062914;28;20431;-75
2021/12/22 00:33:22;;;;;;;0.40;0.40;;;-2.30;99.90;;;;;;5045207;28;20464;-75
2021/12/22 00:35:48;;;;;;;1.15;1.15;;;-2.30;99.90;;;;;;5047777;28;20152;-75
2021/12/22 00:38:19;;;;;;;0.70;0.70;;;-2.30;99.90;;;;;;5041689;28;20048;-75
2021/12/22 00:40:46;;;;;;;1.95;1.25;;;-2.30;99.90;;;;;;5056782;28;20114;-75
2021/12/22 00:43:13;;;;;;;0.55;0.55;;;-2.30;99.90;;;;;;5035257;28;20080;-75
2021/12/22 00:45:40;;;;;;;1.17;1.08;;;-2.40;99.90;;;;;;5051807;28;20054;-75
2021/12/22 00:48:08;;;;;;;1.58;1.55;;;-2.40;99.90;;;;;;5038559;28;20076;-75
2021/12/22 00:50:36;;;;;;;0.65;0.65;;;-2.50;99.90;;;;;;5032998;28;20398;-75
2021/12/22 00:53:04;;;;;;;0.95;0.95;;;-2.50;99.90;;;;;;5047207;28;20041;-75
2021/12/22 00:55:30;;;;;;;1.15;1.15;;;-2.50;99.90;;;;;;5063316;28;20317;-74
2021/12/22 00:57:56;;;;;;;3.75;2.78;;;-2.50;99.90;;;;;;5059737;28;20044;-75
2021/12/22 01:00:24;;;;;;;4.55;1.90;;;-2.50;99.90;;;;;;5055345;28;20051;-74
2021/12/22 01:02:50;;;;;;;0.47;0.47;;;-2.40;99.90;;;;;;5035101;28;20049;-75
2021/12/22 01:05:18;;;;;;;2.10;1.17;;;-2.40;99.90;;;;;;5070246;28;20056;-74
2021/12/22 01:07:46;;;;;;;2.70;2.15;;;-2.40;99.90;;;;;;5062784;28;20124;-74
2021/12/22 01:10:13;;;;;;;1.15;1.08;;;-2.40;99.90;;;;;;5036022;28;20036;-75
2021/12/22 01:12:39;;;;;;;0.57;0.57;;;-2.40;99.90;;;;;;5084867;28;20532;-74
2021/12/22 01:15:08;;;;;;;0.60;0.60;;;-2.40;99.90;;;;;;5034261;28;20086;-74
2021/12/22 01:17:40;;;;;;;1.90;1.75;;;-2.40;99.90;;;;;;5042233;28;20497;-75
2021/12/22 01:20:16;;;;;;;0.50;0.50;;;-2.50;99.90;;;;;;5070838;28;20040;-74
2021/12/22 01:25:09;;;;;;;0.50;0.50;;;-2.60;99.90;;;;;;5052577;28;20413;-74
2021/12/22 01:27:40;;;;;;;0.40;0.40;;;-2.60;99.90;;;;;;5048024;28;20102;-74
2021/12/22 01:30:19;;;;;;;1.00;1.00;;;-2.60;99.90;;;;;;5051849;28;20074;-75
2021/12/22 01:32:46;;;;;;;4.38;1.55;;;-2.70;99.90;;;;;;5063245;28;20037;-74
2021/12/22 01:35:15;;;;;;;0.70;0.70;;;-2.60;99.90;;;;;;5081488;28;20033;-74
2021/12/22 01:37:41;;;;;;;0.43;0.43;;;-2.60;99.90;;;;;;5052902;28;20093;-75
2021/12/22 01:40:09;;;;;;;0.50;0.50;;;-2.70;99.90;;;;;;5054477;28;20037;-74
2021/12/22 01:42:35;;;;;;;0.40;0.40;;;-2.80;99.90;;;;;;5048985;28;20128;-74
2021/12/22 01:45:28;;;;;;;0.50;0.50;;;-2.80;99.90;;;;;;5041425;28;20047;-74
2021/12/22 01:50:45;;;;;;;1.75;1.67;;;-2.90;99.90;;;;;;5038704;28;20456;-74
2021/12/22 01:53:20;;;;;;;0.70;0.70;;;-2.90;99.90;;;;;;5063795;28;20047;-74
2021/12/22 01:55:59;;;;;;;1.27;1.27;;;-3.00;99.90;;;;;;5053625;28;20080;-74
2021/12/22 01:58:39;;;;;;;0.40;0.40;;;-3.00;99.90;;;;;;5053811;28;20052;-74
2021/12/22 02:01:06;;;;;;;1.08;1.05;;;-3.00;99.90;;;;;;5031590;28;20045;-74
2021/12/22 02:03:32;;;;;;;0.77;0.77;;;-3.00;99.90;;;;;;5033651;28;20056;-74
2021/12/22 02:05:58;;;;;;;2.45;1.48;;;-3.00;99.90;;;;;;5058964;28;20044;-74
2021/12/22 02:08:24;;;;;;;1.15;1.15;;;-3.00;99.90;;;;;;5042009;28;20037;-74
2021/12/22 02:10:50;;;;;;;0.75;0.75;;;-3.00;99.90;;;;;;5060956;28;20056;-74
2021/12/22 02:13:23;;;;;;;0.50;0.50;;;-3.10;99.90;;;;;;5048581;28;20037;-74
2021/12/22 02:15:49;;;;;;;0.57;0.57;;;-3.10;99.90;;;;;;5045756;28;20033;-74
2021/12/22 02:18:20;;;;;;;0.50;0.50;;;-3.10;99.90;;;;;;5046003;28;20071;-74
2021/12/22 02:20:49;;;;;;;0.50;0.50;;;-3.20;99.90;;;;;;5047974;28;20044;-74
2021/12/22 02:23:15;;;;;;;0.50;0.50;;;-3.20;99.90;;;;;;5031418;28;20365;-75
2021/12/22 02:25:48;;;;;;;0.50;0.50;;;-3.20;99.90;;;;;;5033393;28;20095;-75
2021/12/22 02:28:22;;;;;;;1.48;1.45;;;-3.30;99.90;;;;;;5017875;28;20401;-74
2021/12/22 02:30:51;;;;;;;0.82;0.82;;;-3.30;99.90;;;;;;5033407;28;20056;-74
2021/12/22 02:33:25;;;;;;;0.73;0.73;;;-3.30;99.90;;;;;;5062191;28;20138;-74
2021/12/22 02:38:42;;;;;;;0.70;0.70;;;-3.40;99.90;;;;;;5044480;28;20071;-74
2021/12/22 02:41:10;;;;;;;0.40;0.40;;;-3.40;99.90;;;;;;5049286;28;20397;-74
2021/12/22 02:43:45;;;;;;;0.50;0.50;;;-3.40;99.90;;;;;;5037554;28;20045;-74
2021/12/22 02:46:12;;;;;;;0.50;0.50;;;-3.50;99.90;;;;;;5051566;28;20412;-74
2021/12/22 02:48:40;;;;;;;2.95;1.98;;;-3.50;99.90;;;;;;5041290;28;20037;-74
2021/12/22 02:51:06;;;;;;;0.95;0.90;;;-3.50;99.90;;;;;;5047978;28;20104;-74
2021/12/22 02:53:44;;;;;;;0.50;0.50;;;-3.50;99.90;;;;;;5056162;28;20489;-75
2021/12/22 03:04:10;;;;;;;0.68;0.68;;;-3.60;99.90;;;;;;5048535;28;20037;-74
2021/12/22 03:09:25;;;;;;;0.50;0.50;;;-3.60;99.90;;;;;;5044319;28;20086;-74
2021/12/22 03:11:53;;;;;;;1.77;1.75;;;-3.70;99.90;;;;;;5074437;28;20099;-74
2021/12/22 03:14:20;;;;;;;0.80;0.80;;;-3.60;99.90;;;;;;5054565;28;20449;-74
2021/12/22 03:16:47;;;;;;;0.50;0.50;;;-3.70;99.90;;;;;;5049148;28;20060;-75
2021/12/22 03:19:18;;;;;;;0.80;0.80;;;-3.70;99.90;;;;;;5035417;28;20033;-74
2021/12/22 03:21:46;;;;;;;0.75;0.75;;;-3.80;99.90;;;;;;5046782;28;20132;-74
2021/12/22 03:24:12;;;;;;;1.08;0.98;;;-3.70;99.90;;;;;;5054027;28;20457;-74
2021/12/22 03:26:42;;;;;;;0.57;0.57;;;-3.80;99.90;;;;;;5029728;28;20402;-73
2021/12/22 03:29:16;;;;;;;0.50;0.50;;;-3.80;99.90;;;;;;5048859;28;20123;-74
2021/12/22 03:31:43;;;;;;;0.63;0.63;;;-3.80;99.90;;;;;;5018646;28;20041;-73
2021/12/22 03:34:09;;;;;;;0.50;0.50;;;-3.80;99.90;;;;;;5037894;28;20060;-73
2021/12/22 03:36:37;;;;;;;0.60;0.60;;;-3.80;99.90;;;;;;5051228;28;20119;-74
2021/12/22 03:39:05;;;;;;;0.95;0.95;;;-3.80;99.90;;;;;;5032791;28;20040;-73
2021/12/22 03:41:32;;;;;;;0.93;0.93;;;-3.80;99.90;;;;;;5042547;28;20041;-73
2021/12/22 03:43:57;;;;;;;1.67;1.58;;;-3.80;99.90;;;;;;5028553;28;20044;-73
2021/12/22 03:46:24;;;;;;;1.75;1.65;;;-3.80;99.90;;;;;;5046873;28;20045;-73
2021/12/22 03:48:50;;;;;;;1.67;1.58;;;-3.70;99.90;;;;;;5045387;28;20132;-74
2021/12/22 03:51:16;;;;;;;3.75;3.42;;;-3.70;99.90;;;;;;5045382;28;20135;-73
2021/12/22 03:53:42;;;;;;;1.00;1.00;;;-3.70;99.90;;;;;;5031294;28;20124;-73
2021/12/22 03:56:07;;;;;;;1.52;1.48;;;-3.60;99.90;;;;;;5041627;28;20406;-74
2021/12/22 03:58:33;;;;;;;0.60;0.60;;;-3.60;99.90;;;;;;5048303;28;20043;-73
2021/12/22 04:00:59;;;;;;;0.85;0.85;;;-3.60;99.90;;;;;;5043138;28;20068;-73
2021/12/22 04:03:29;;;;;;;2.17;2.03;;;-3.60;99.90;;;;;;5054765;28;20052;-73
2021/12/22 04:05:55;;;;;;;10.73;3.05;;;-3.60;99.90;;;;;;5037272;28;20037;-73
2021/12/22 04:08:21;;;;;;;3.05;2.83;;;-3.50;99.90;;;;;;5053351;28;20040;-73
2021/12/22 04:10:50;;;;;;;0.75;0.75;;;-3.40;99.90;;;;;;5052164;28;20033;-74
2021/12/22 04:13:17;;;;;;;1.67;1.33;;;-3.40;99.90;;;;;;5039207;28;20037;-73
2021/12/22 04:15:44;;;;;;;6.45;3.65;;;-3.50;99.90;;;;;;5044852;28;20041;-73
2021/12/22 04:18:11;;;;;;;3.75;3.47;;;-3.50;99.90;;;;;;5049672;28;20500;-73
2021/12/22 04:20:37;;;;;;;2.97;2.65;;;-3.40;99.90;;;;;;5044081;28;20036;-73
2021/12/22 04:23:04;;;;;;;1.05;1.05;;;-3.40;99.90;;;;;;5059782;28;20049;-73
2021/12/22 04:25:30;;;;;;;2.45;2.33;;;-3.40;99.90;;;;;;5053813;28;20405;-72
2021/12/22 04:28:04;;;;;;;7.38;3.35;;;-3.40;99.90;;;;;;5053320;28;20048;-73
2021/12/22 04:30:36;;;;;;;0.75;0.75;;;-3.50;99.90;;;;;;5054560;28;20462;-73
2021/12/22 04:33:03;;;;;;;3.15;2.95;;;-3.40;99.90;;;;;;5052126;28;20068;-73
2021/12/22 04:35:29;;;;;;;1.35;1.35;;;-3.40;99.90;;;;;;5051951;28;20049;-73
2021/12/22 04:37:55;;;;;;;1.92;1.70;;;-3.30;99.90;;;;;;5040945;28;20495;-73
2021/12/22 04:40:22;;;;;;;3.53;1.95;;;-3.30;99.90;;;;;;5024958;28;20041;-73
2021/12/22 04:42:47;;;;;;;2.70;2.50;;;-3.30;99.90;;;;;;5068076;28;20052;-72
2021/12/22 04:45:14;;;;;;;2.45;2.25;;;-3.40;99.90;;;;;;5069990;28;20119;-73
2021/12/22 04:47:42;;;;;;;1.95;1.60;;;-3.40;99.90;;;;;;5046147;28;20056;-73
2021/12/22 04:50:14;;;;;;;5.65;3.30;;;-3.40;99.90;;;;;;5052219;28;20394;-73
2021/12/22 04:52:48;;;;;;;4.07;3.33;;;-3.40;99.90;;;;;;5049836;28;20056;-73
2021/12/22 04:55:14;;;;;;;5.05;3.88;;;-3.40;99.90;;;;;;5055549;28;20079;-73
2021/12/22 04:57:41;;;;;;;7.30;4.63;;;-3.40;99.90;;;;;;5050949;28;20049;-73
2021/12/22 05:00:10;;;;;;;3.22;2.45;;;-3.40;99.90;;;;;;5029946;28;20045;-73
2021/12/22 05:02:36;;;;;;;5.15;3.72;;;-3.40;99.90;;;;;;5050430;28;20413;-72
2021/12/22 05:05:03;;;;;;;6.32;3.85;;;-3.50;99.90;;;;;;5058681;28;20392;-73
2021/12/22 05:07:29;;;;;;;4.53;3.05;;;-3.50;99.90;;;;;;5054501;28;20076;-73
2021/12/22 05:09:55;;;;;;;1.52;1.48;;;-3.50;99.90;;;;;;5048224;28;20064;-73
2021/12/22 05:12:21;;;;;;;4.10;3.30;;;-3.50;99.90;;;;;;5059301;28;20202;-72
2021/12/22 05:14:49;;;;;;;2.33;2.15;;;-3.50;99.90;;;;;;5058230;28;20045;-73
2021/12/22 05:17:26;;;;;;;5.55;5.03;;;-3.50;99.90;;;;;;5050195;28;20153;-73
2021/12/22 05:19:51;;;;;;;2.45;1.85;;;-3.50;99.90;;;;;;5043151;28;20040;-72
2021/12/22 05:22:17;;;;;;;5.78;3.95;;;-3.50;99.90;;;;;;5031482;28;20047;-72
2021/12/22 05:24:43;;;;;;;4.03;3.13;;;-3.50;99.90;;;;;;5053290;28;20036;-73
2021/12/22 05:27:11;;;;;;;15.15;7.35;;;-3.50;99.90;;;;;;5043822;28;20041;-73
2021/12/22 05:29:38;;;;;;;5.13;3.47;;;-3.50;99.90;;;;;;5055315;28;20056;-72
2021/12/22 05:32:05;;;;;;;2.92;2.20;;;-3.60;99.90;;;;;;5050239;28;20131;-72
2021/12/22 05:34:31;;;;;;;4.57;3.92;;;-3.60;99.90;;;;;;5054273;28;20044;-72
2021/12/22 05:36:57;;;;;;;7.03;5.13;;;-3.60;99.90;;;;;;5054730;28;20393;-72
2021/12/22 05:39:23;;;;;;;3.97;2.58;;;-3.60;99.90;;;;;;5051430;28;20044;-73
2021/12/22 05:41:48;;;;;;;2.13;1.98;;;-3.60;99.90;;;;;;5030107;28;20037;-73
2021/12/22 05:44:14;;;;;;;3.55;3.25;;;-3.60;99.90;;;;;;5041678;28;20083;-72
2021/12/22 05:46:40;;;;;;;1.75;1.65;;;-3.60;99.90;;;;;;5037376;28;20095;-73
2021/12/22 05:49:06;;;;;;;2.95;2.45;;;-3.60;99.90;;;;;;5070086;28;20037;-72
2021/12/22 05:51:34;;;;;;;2.40;2.20;;;-3.60;99.90;;;;;;5053590;28;20119;-72
2021/12/22 05:53:59;;;;;;;2.13;1.95;;;-3.60;99.90;;;;;;5036533;28;20048;-72
2021/12/22 05:56:30;;;;;;;1.10;1.10;;;-3.70;99.90;;;;;;5042643;28;20455;-73
2021/12/22 05:58:56;;;;;;;1.38;1.38;;;-3.70;99.90;;;;;;5050752;28;20037;-73
2021/12/22 06:01:22;;;;;;;1.33;1.23;;;-3.70;99.90;;;;;;5045558;28;20441;-73
2021/12/22 06:03:48;;;;;;;1.90;1.52;;;-3.70;99.90;;;;;;5048586;28;20056;-72
2021/12/22 06:06:14;;;;;;;4.80;3.28;;;-3.70;99.90;;;;;;5040028;28;20048;-72
2021/12/22 06:08:40;;;;;;;5.15;1.85;;;-3.70;99.90;;;;;;5041258;28;20465;-73
2021/12/22 06:11:06;;;;;;;4.10;2.83;;;-3.80;99.90;;;;;;5052511;28;20127;-72
2021/12/22 06:13:32;;;;;;;2.78;2.53;;;-3.80;99.90;;;;;;5044412;28;20076;-72
2021/12/22 06:15:57;;;;;;;2.60;2.40;;;-3.80;99.90;;;;;;5045675;28;20041;-72
2021/12/22 06:18:24;;;;;;;2.63;1.77;;;-3.80;99.90;;;;;;5050646;28;20090;-73
2021/12/22 06:20:49;;;;;;;3.13;2.83;;;-3.80;99.90;;;;;;5054696;28;20044;-72
2021/12/22 06:23:15;;;;;;;9.18;4.95;;;-3.80;99.90;;;;;;5044538;28;20041;-72
2021/12/22 06:25:41;;;;;;;1.83;1.73;;;-3.80;99.90;;;;;;5049688;28;20049;-72
2021/12/22 06:28:07;;;;;;;4.40;3.58;;;-3.80;99.90;;;;;;5030019;28;20505;-72
2021/12/22 06:30:33;;;;;;;1.58;1.48;;;-3.80;99.90;;;;;;5041499;28;20052;-73
2021/12/22 06:32:59;;;;;;;2.22;2.13;;;-3.80;99.90;;;;;;5035154;28;20087;-72
2021/12/22 06:35:25;;;;;;;5.53;3.70;;;-3.70;99.90;;;;;;5043548;28;20436;-73
2021/12/22 06:37:52;;;;;;;1.45;1.35;;;-3.80;99.90;;;;;;5044963;28;20079;-72
2021/12/22 06:40:18;;;;;;;2.28;2.08;;;-3.70;99.90;;;;;;5077683;28;20479;-72
2021/12/22 06:42:44;;;;;;;5.25;4.78;;;-3.70;99.90;;;;;;5054461;28;20037;-72
2021/12/22 06:45:12;;;;;;;4.97;4.55;;;-3.80;99.90;;;;;;5031242;28;20047;-72
2021/12/22 06:47:38;;;;;;;5.63;3.45;;;-3.70;99.90;;;;;;5048209;28;20106;-72
2021/12/22 06:50:06;;;;;;;11.40;4.60;;;-3.80;99.90;;;;;;5046000;28;20041;-73
2021/12/22 06:52:32;;;;;;;2.30;2.05;;;-3.80;99.90;;;;;;5064140;28;20102;-72
2021/12/22 06:54:58;;;;;;;3.55;3.25;;;-3.70;99.90;;;;;;5034005;28;20103;-73
2021/12/22 06:57:24;;;;;;;10.40;6.82;;;-3.70;99.90;;;;;;5037967;28;20040;-72
2021/12/22 06:59:50;;;;;;;4.18;3.42;;;-3.70;99.90;;;;;;5056248;28;20386;-72
2021/12/22 07:02:16;;;;;;;1.98;1.88;;;-3.80;99.90;;;;;;5032985;28;20036;-72
2021/12/22 07:04:42;;;;;;;4.50;3.05;;;-3.70;99.90;;;;;;5028431;28;20036;-72
2021/12/22 07:07:08;;;;;;;1.45;1.42;;;-3.80;99.90;;;;;;5050014;28;20041;-72
2021/12/22 07:09:34;;;;;;;8.38;3.95;;;-3.80;99.90;;;;;;5049833;28;20049;-72
2021/12/22 07:11:59;;;;;;;4.15;1.55;;;-3.80;99.90;;;;;;5048452;28;20044;-72
2021/12/22 07:14:25;;;;;;;6.85;3.13;;;-3.80;99.90;;;;;;5081012;28;20049;-72
2021/12/22 07:16:51;;;;;;;2.00;1.75;;;-3.80;99.90;;;;;;5027967;28;20032;-72
2021/12/22 07:19:17;;;;;;;2.42;2.05;;;-3.80;99.90;;;;;;5049102;28;20044;-72
2021/12/22 07:21:44;;;;;;;4.82;3.50;;;-3.80;99.90;;;;;;5047110;28;20041;-73
2021/12/22 07:24:10;;;;;;;3.75;3.45;;;-3.80;99.90;;;;;;5038886;28;20099;-72
2021/12/22 07:26:38;;;;;;;8.98;3.50;;;-3.80;99.90;;;;;;5045596;28;20194;-73
2021/12/22 07:29:04;;;;;;;1.60;1.50;;;-3.80;99.90;;;;;;5081419;28;20094;-72
2021/12/22 07:31:30;;;;;;;4.40;2.25;;;-3.80;99.90;;;;;;5040904;28;20051;-72
2021/12/22 07:34:06;;;;;;;2.00;1.85;;;-3.70;99.90;;;;;;5048562;28;20040;-72
2021/12/22 07:36:33;;;;;;;3.60;3.28;;;-3.70;99.90;;;;;;5020417;28;20148;-72
2021/12/22 07:39:02;;;;;;;3.90;3.53;;;-3.70;99.90;;;;;;5071884;28;20079;-72
2021/12/22 07:41:28;;;;;;;14.05;2.35;;;-3.70;99.90;;;;;;5044840;28;20041;-72
2021/12/22 07:43:54;;;;;;;4.22;3.20;;;-3.70;99.90;;;;;;5074149;28;20136;-72
2021/12/22 07:46:20;;;;;;;0.95;0.95;;;-3.70;99.90;;;;;;5022288;28;20045;-72
2021/12/22 07:48:46;;;;;;;3.15;2.08;;;-3.70;99.90;;;;;;5029186;28;20041;-72
2021/12/22 07:51:12;;;;;;;3.67;1.63;;;-3.70;99.90;;;;;;5075244;28;20570;-72
2021/12/22 07:53:39;;;;;;;1.75;1.63;;;-3.70;99.90;;;;;;5044354;28;20037;-72
2021/12/22 07:56:05;;;;;;;4.95;3.58;;;-3.70;99.90;;;;;;5028953;28;20029;-73
2021/12/22 07:58:30;;;;;;;1.50;1.40;;;-3.70;99.90;;;;;;5043052;28;20459;-73
2021/12/22 08:00:57;;;;;;;7.03;3.22;;;-3.70;99.90;;;;;;5047661;28;20508;-73
2021/12/22 08:03:24;;;;;;;6.50;3.80;;;-3.70;99.90;;;;;;5035081;28;20049;-73
2021/12/22 08:05:52;;;;;;;4.18;3.78;;;-3.60;99.90;;;;;;5029367;28;20045;-72
2021/12/22 08:08:19;;;;;;;9.63;6.63;;;-3.60;99.90;;;;;;5040671;28;20210;-72
2021/12/22 08:10:47;;;;;;;6.80;3.30;;;-3.60;99.90;;;;;;5045155;28;20685;-72
2021/12/22 08:13:16;;;;;;;8.75;4.57;;;-3.60;99.90;;;;;;5060319;28;20040;-72
2021/12/22 08:15:43;;;;;;;9.98;4.43;;;-3.50;99.90;;;;;;5028824;28;20041;-73
2021/12/22 08:18:09;;;;;;;5.03;3.50;;;-3.50;99.90;;;;;;5026006;28;20039;-73
2021/12/22 08:20:35;;;;;;;5.68;4.32;;;-3.50;99.90;;;;;;5080078;28;20485;-73
2021/12/22 08:23:01;;;;;;;4.28;2.63;;;-3.40;99.90;;;;;;5032363;28;20045;-73
2021/12/22 08:25:26;;;;;;;1.92;1.73;;;-3.30;99.90;;;;;;5048486;28;20041;-73
2021/12/22 08:27:56;;;;;;;5.00;2.95;;;-3.30;99.90;;;;;;5031314;28;20080;-73
2021/12/22 08:30:22;;;;;;;3.67;2.67;;;-3.20;99.90;;;;;;5047174;28;20574;-73
2021/12/22 08:32:48;;;;;;;4.03;2.47;;;-3.10;99.90;;;;;;5030074;28;20045;-73
2021/12/22 08:35:16;;;;;;;1.95;1.40;;;-3.10;99.90;;;;;;5031272;28;20379;-73
2021/12/22 08:40:29;;;;;;;2.47;1.90;;;-2.90;99.90;;;;;;5045846;28;20045;-73
2021/12/22 08:42:55;;;;;;;1.80;1.70;;;-2.90;99.90;;;;;;5034688;28;20039;-72
2021/12/22 08:45:22;;;;;;;4.13;2.75;;;-2.80;99.90;;;;;;5051310;28;20102;-73
2021/12/22 08:47:47;;;;;;;4.32;1.45;;;-2.70;99.90;;;;;;5051618;28;20122;-73
2021/12/22 08:50:15;;;;;;;4.13;2.40;;;-2.70;99.90;;;;;;5032019;28;20492;-73
2021/12/22 08:52:41;;;;;;;2.60;1.95;;;-2.60;99.90;;;;;;5034385;28;20146;-73
2021/12/22 08:55:08;;;;;;;1.55;1.45;;;-2.60;99.90;;;;;;5087585;28;20087;-73
2021/12/22 08:57:34;;;;;;;0.75;0.75;;;-2.50;99.90;;;;;;5042313;28;20037;-73
2021/12/22 09:00:01;;;;;;;1.58;1.48;;;-2.40;99.90;;;;;;5051337;28;20067;-73
2021/12/22 09:02:27;;;;;;;1.98;1.83;;;-2.40;99.90;;;;;;5050602;28;20040;-73
2021/12/22 09:04:52;;;;;;;3.15;2.90;;;-2.30;99.90;;;;;;5055345;28;20048;-73
2021/12/22 09:07:19;;;;;;;3.55;3.28;;;-2.30;99.90;;;;;;5049866;28;20041;-73
2021/12/22 09:09:44;;;;;;;2.35;2.15;;;-2.30;99.90;;;;;;5051928;28;20443;-74
2021/12/22 09:12:10;;;;;;;6.60;4.15;;;-2.30;99.90;;;;;;5051186;28;20106;-74
2021/12/22 09:14:36;;;;;;;4.50;2.25;;;-2.30;99.90;;;;;;5049560;28;20409;-74
2021/12/22 09:17:03;;;;;;;3.50;3.17;;;-2.30;99.90;;;;;;5048018;28;20048;-73
2021/12/22 09:19:28;;;;;;;0.90;0.90;;;-2.30;99.90;;;;;;5081504;28;20084;-73
2021/12/22 09:21:54;;;;;;;0.73;0.73;;;-2.30;99.90;;;;;;5079350;28;20064;-73
2021/12/22 09:24:20;;;;;;;3.58;2.67;;;-2.30;99.90;;;;;;5050511;28;20108;-73
2021/12/22 09:26:46;;;;;;;1.00;1.00;;;-2.20;99.90;;;;;;5051276;28;20051;-73
2021/12/22 09:29:12;;;;;;;2.00;1.90;;;-2.20;99.90;;;;;;5043719;28;20028;-74
2021/12/22 09:31:39;;;;;;;1.70;1.60;;;-2.10;99.90;;;;;;5048253;28;20091;-73
2021/12/22 09:34:06;;;;;;;2.05;1.90;;;-2.00;99.90;;;;;;5054775;28;20046;-73
2021/12/22 09:36:32;;;;;;;3.28;2.33;;;-1.80;99.90;;;;;;5051345;28;20044;-74
2021/12/22 09:38:58;;;;;;;9.57;4.40;;;-1.60;99.90;;;;;;5079549;28;20061;-74
2021/12/22 09:41:25;;;;;;;19.38;8.15;;;-1.40;99.90;;;;;;5033825;28;20040;-74
2021/12/22 09:43:55;;;;;;;5.65;4.50;;;-1.30;99.90;;;;;;5049651;28;20039;-74
2021/12/22 09:46:22;;;;;;;4.30;3.30;;;-1.30;99.90;;;;;;5030868;28;20044;-74
2021/12/22 09:49:00;;;;;;;4.65;3.22;;;-1.20;99.90;;;;;;5034857;28;20037;-74
2021/12/22 09:53:54;;;;;;;6.07;4.47;;;-1.00;99.90;;;;;;5045157;28;20050;-74
2021/12/22 09:56:30;;;;;;;14.43;4.82;;;-1.00;99.90;;;;;;5027469;28;20991;-75
2021/12/22 09:58:56;;;;;;;10.60;6.35;;;-0.90;99.90;;;;;;5042006;28;20413;-75
2021/12/22 10:01:25;;;;;;;10.18;4.88;;;-0.90;99.90;;;;;;5057858;28;20082;-75
2021/12/22 10:03:56;;;;;;;9.13;4.68;;;-0.90;99.90;;;;;;5038482;28;20131;-75
2021/12/22 10:06:22;;;;;;;15.05;5.30;;;-0.90;99.90;;;;;;5040367;28;20059;-75
2021/12/22 10:09:05;;;;;;;7.10;5.72;;;-0.80;99.90;;;;;;5029041;28;20036;-76
2021/12/22 10:11:33;;;;;;;8.50;6.40;;;-0.70;99.90;;;;;;5049954;28;20048;-75
2021/12/22 10:13:59;;;;;;;9.80;4.97;;;-0.60;99.90;;;;;;5051742;28;20313;-75
2021/12/22 10:16:27;;;;;;;9.18;5.50;;;-0.60;99.90;;;;;;5050956;28;20113;-75
2021/12/22 10:19:05;;;;;;;12.50;5.72;;;-0.50;99.90;;;;;;5038996;28;20470;-76
2021/12/22 10:21:33;;;;;;;2.30;2.10;;;-0.50;99.90;;;;;;5046773;28;20140;-75
2021/12/22 10:24:03;;;;;;;6.88;6.20;;;-0.40;99.90;;;;;;5049112;28;20045;-75
2021/12/22 10:26:28;;;;;;;6.55;3.72;;;-0.40;99.90;;;;;;5050979;28;20082;-76
2021/12/22 10:29:00;;;;;;;8.18;3.78;;;-0.30;99.90;;;;;;5039124;28;20044;-76
2021/12/22 10:31:31;;;;;;;8.05;4.97;;;-0.30;99.90;;;;;;5020370;28;20037;-75
2021/12/22 10:34:00;;;;;;;3.72;2.22;;;-0.30;99.90;;;;;;5036304;28;20083;-75
2021/12/22 10:36:26;;;;;;;10.20;4.93;;;-0.20;99.90;;;;;;5046493;28;20048;-75
2021/12/22 10:38:55;;;;;;;5.80;3.70;;;-0.10;99.90;;;;;;5053908;28;20362;-75
2021/12/22 10:41:27;;;;;;;4.50;3.00;;;-0.10;99.90;;;;;;5046812;28;20033;-75
2021/12/22 10:43:53;;;;;;;4.40;3.20;;;-0.10;99.90;;;;;;5053563;28;20123;-75
2021/12/22 10:46:31;;;;;;;10.18;4.20;;;-0.20;99.90;;;;;;5036138;28;20052;-76
2021/12/22 10:49:19;;;;;;;6.32;4.95;;;-0.20;99.90;;;;;;5027995;28;20047;-76
2021/12/22 10:51:55;;;;;;;9.75;4.78;;;-0.20;99.90;;;;;;5046221;28;20045;-76
2021/12/22 10:54:30;;;;;;;2.67;2.45;;;-0.20;99.90;;;;;;5064632;28;20413;-76
2021/12/22 10:56:58;;;;;;;10.15;6.30;;;-0.20;99.90;;;;;;5051414;28;20606;-76
2021/12/22 10:59:24;;;;;;;10.05;5.25;;;-0.10;99.90;;;;;;5048649;28;20091;-76
2021/12/22 11:01:53;;;;;;;8.38;4.43;;;-0.10;99.90;;;;;;5044736;28;20040;-76
2021/12/22 11:04:23;;;;;;;10.45;5.82;;;-0.10;99.90;;;;;;5047355;28;20045;-76
2021/12/22 11:06:52;;;;;;;5.22;2.85;;;-0.10;99.90;;;;;;5031100;28;20059;-76
2021/12/22 11:09:19;;;;;;;7.57;4.13;;;-0.10;99.90;;;;;;5047958;28;20614;-76
2021/12/22 11:11:55;;;;;;;11.27;5.13;;;-0.10;99.90;;;;;;5030616;28;20617;-76
2021/12/22 11:14:27;;;;;;;10.05;4.63;;;-0.10;99.90;;;;;;5047658;28;20386;-76
2021/12/22 11:17:06;;;;;;;7.07;5.00;;;-0.10;99.90;;;;;;5017043;28;20036;-76
2021/12/22 11:19:32;;;;;;;4.10;2.63;;;0.00;99.90;;;;;;5023517;28;20041;-76
2021/12/22 11:22:13;;;;;;;13.43;5.53;;;0.00;99.90;;;;;;5025472;28;20041;-76
2021/12/22 11:24:51;;;;;;;6.90;3.10;;;0.00;99.90;;;;;;5044991;28;20151;-77
2021/12/22 11:27:21;;;;;;;3.17;2.35;;;0.10;99.90;;;;;;5027262;28;20037;-77
2021/12/22 11:29:51;;;;;;;19.05;7.85;;;0.20;99.90;;;;;;5042780;28;20094;-77
2021/12/22 11:32:20;;;;;;;6.30;4.35;;;0.20;99.90;;;;;;5045926;28;20045;-77
2021/12/22 11:34:51;;;;;;;5.45;3.58;;;0.20;99.90;;;;;;5039090;28;20052;-77
2021/12/22 11:37:19;;;;;;;4.25;2.45;;;0.20;99.90;;;;;;5029668;28;20718;-77
2021/12/22 11:39:50;;;;;;;5.53;2.53;;;0.30;99.90;;;;;;5073991;28;20438;-77
2021/12/22 11:42:19;;;;;;;29.08;5.95;;;0.30;99.90;;;;;;5033316;28;20056;-77
2021/12/22 11:44:48;;;;;;;9.35;5.07;;;0.30;99.90;;;;;;5039547;28;20115;-77
2021/12/22 11:47:16;;;;;;;12.70;4.10;;;0.30;99.90;;;;;;5035267;28;20067;-76
2021/12/22 11:49:54;;;;;;;7.25;3.85;;;0.30;99.90;;;;;;5037350;28;20497;-77
2021/12/22 11:52:36;;;;;;;12.95;4.22;;;0.20;99.90;;;;;;5021181;28;20044;-77
2021/12/22 11:55:05;;;;;;;9.30;4.05;;;0.20;99.90;;;;;;5023288;28;20044;-77
2021/12/22 11:57:31;;;;;;;5.03;3.83;;;0.20;99.90;;;;;;5041213;28;20049;-77
2021/12/22 11:59:56;;;;;;;4.13;3.08;;;0.20;99.90;;;;;;5029771;28;20048;-77
2021/12/22 12:02:23;;;;;;;9.75;5.75;;;0.20;99.90;;;;;;5033684;28;20115;-77
2021/12/22 12:04:53;;;;;;;9.98;4.38;;;0.20;99.90;;;;;;5045123;28;20045;-77
2021/12/22 12:07:45;;;;;;;5.57;3.67;;;0.20;99.90;;;;;;5023170;28;20041;-77
2021/12/22 12:10:45;;;;;;;9.02;4.80;;;0.20;99.90;;;;;;5083428;28;20044;-77
2021/12/22 12:13:24;;;;;;;10.50;5.95;;;0.10;99.90;;;;;;5007160;28;20424;-77
2021/12/22 12:21:39;;;;;;;8.07;5.53;;;0.10;99.90;;;;;;5062613;28;20036;-77
2021/12/22 12:22:11;;;;;;;8.50;4.10;;;0.00;99.90;;;;;;5040443;28;20045;-76
2021/12/22 12:24:46;;;;;;;10.98;5.60;;;0.10;99.90;;;;;;5029360;28;20076;-77
2021/12/22 12:27:34;;;;;;;2.75;2.50;;;0.10;99.90;;;;;;5035829;28;20052;-77
2021/12/22 12:30:19;;;;;;;7.93;5.40;;;0.20;99.90;;;;;;5019212;28;20053;-77
2021/12/22 12:32:49;;;;;;;6.72;5.30;;;0.20;99.90;;;;;;5046714;28;20083;-77
2021/12/22 12:35:17;;;;;;;8.30;3.90;;;0.20;99.90;;;;;;5049118;28;20045;-77
2021/12/22 12:38:16;;;;;;;5.13;3.83;;;0.20;99.90;;;;;;5049518;28;20037;-77
2021/12/22 12:40:55;;;;;;;5.68;3.33;;;0.20;99.90;;;;;;5045059;28;20041;-77
2021/12/22 12:43:42;;;;;;;10.40;5.47;;;0.20;99.90;;;;;;5043347;28;20454;-77
2021/12/22 12:48:47;;;;;;;5.60;3.58;;;0.30;99.90;;;;;;5080108;28;20124;-80
2021/12/22 12:51:19;;;;;;;10.00;5.80;;;0.30;99.90;;;;;;5049778;28;20045;-78
2021/12/22 12:53:47;;;;;;;3.88;2.78;;;0.30;99.90;;;;;;5046800;28;20037;-78
2021/12/22 12:56:14;;;;;;;3.80;2.35;;;0.30;99.90;;;;;;5049934;28;20548;-78
2021/12/22 12:59:11;;;;;;;7.90;4.55;;;0.30;99.90;;;;;;5037570;28;20040;-78
2021/12/22 13:01:52;;;;;;;2.00;1.88;;;0.30;99.90;;;;;;5046473;28;20352;-78
2021/12/22 13:04:23;;;;;;;5.95;3.25;;;0.30;99.90;;;;;;5074545;28;20054;-78
2021/12/22 13:06:54;;;;;;;7.80;4.00;;;0.30;99.90;;;;;;5039464;28;20059;-78
2021/12/22 13:09:21;;;;;;;5.60;4.63;;;0.40;99.90;;;;;;5034758;28;20045;-79
2021/12/22 13:12:11;;;;;;;21.85;5.25;;;0.30;99.90;;;;;;5025807;28;20482;-78
2021/12/22 13:17:42;;;;;;;3.25;2.70;;;0.20;99.90;;;;;;5035752;28;20037;-78
2021/12/22 13:20:11;;;;;;;30.88;5.68;;;0.20;99.90;;;;;;5071785;28;20048;-79
2021/12/22 13:22:39;;;;;;;1.05;1.05;;;0.10;99.90;;;;;;5028573;28;20421;-79
2021/12/22 13:25:19;;;;;;;1.77;1.65;;;0.10;99.90;;;;;;5024724;28;20106;-79
2021/12/22 13:27:55;;;;;;;5.40;4.18;;;0.10;99.90;;;;;;5038104;28;20052;-79
2021/12/22 13:30:20;;;;;;;3.40;2.10;;;0.10;99.90;;;;;;5025614;28;20045;-79